sensor_id;sensor_type;location;lat;lon;timestamp;P1;durP1;ratioP1;P2;durP2;ratioP2
78674;SDS011;67990;59.826;30.108;2023-06-26T00:00:06;10.32;;;6.30;;
78674;SDS011;67990;59.826;30.108;2023-06-26T00:02:34;10.20;;;6.35;;
78674;SDS011;67990;59.826;30.108;2023-06-26T00:05:01;11.73;;;7.40;;
78674;SDS011;67990;59.826;30.108;2023-06-26T00:07:31;14.07;;;7.25;;
78674;SDS011;67990;59.826;30.108;2023-06-26T00:12:46;10.70;;;6.50;;
78674;SDS011;67990;59.826;30.108;2023-06-26T00:15:13;11.15;;;6.70;;
78674;SDS011;67990;59.826;30.108;2023-06-26T00:17:40;11.93;;;6.82;;
78674;SDS011;67990;59.826;30.108;2023-06-26T00:20:08;13.18;;;7.20;;
78674;SDS011;67990;59.826;30.108;2023-06-26T00:22:39;12.37;;;6.83;;
78674;SDS011;67990;59.826;30.108;2023-06-26T00:25:07;14.15;;;7.35;;
78674;SDS011;67990;59.826;30.108;2023-06-26T00:27:34;10.18;;;6.30;;
78674;SDS011;67990;59.826;30.108;2023-06-26T00:30:01;12.27;;;6.28;;
78674;SDS011;67990;59.826;30.108;2023-06-26T00:32:28;11.48;;;6.55;;
78674;SDS011;67990;59.826;30.108;2023-06-26T00:34:55;11.73;;;7.17;;
78674;SDS011;67990;59.826;30.108;2023-06-26T00:40:10;11.40;;;7.07;;
78674;SDS011;67990;59.826;30.108;2023-06-26T00:42:56;11.02;;;6.28;;
78674;SDS011;67990;59.826;30.108;2023-06-26T00:45:41;12.13;;;6.90;;
78674;SDS011;67990;59.826;30.108;2023-06-26T00:48:09;12.07;;;7.17;;
78674;SDS011;67990;59.826;30.108;2023-06-26T00:51:14;11.00;;;6.55;;
78674;SDS011;67990;59.826;30.108;2023-06-26T00:53:43;12.55;;;7.15;;
78674;SDS011;67990;59.826;30.108;2023-06-26T00:56:28;10.52;;;7.03;;
78674;SDS011;67990;59.826;30.108;2023-06-26T00:58:57;11.15;;;7.03;;
78674;SDS011;67990;59.826;30.108;2023-06-26T01:01:25;10.83;;;6.93;;
78674;SDS011;67990;59.826;30.108;2023-06-26T01:03:53;9.98;;;6.60;;
78674;SDS011;67990;59.826;30.108;2023-06-26T01:06:41;9.93;;;5.88;;
78674;SDS011;67990;59.826;30.108;2023-06-26T01:11:56;11.30;;;6.50;;
78674;SDS011;67990;59.826;30.108;2023-06-26T01:14:23;11.33;;;7.10;;
78674;SDS011;67990;59.826;30.108;2023-06-26T01:16:51;12.82;;;6.95;;
78674;SDS011;67990;59.826;30.108;2023-06-26T01:19:23;12.82;;;7.78;;
78674;SDS011;67990;59.826;30.108;2023-06-26T01:22:27;12.85;;;7.47;;
78674;SDS011;67990;59.826;30.108;2023-06-26T01:25:03;12.95;;;7.10;;
78674;SDS011;67990;59.826;30.108;2023-06-26T01:30:48;12.40;;;7.18;;
78674;SDS011;67990;59.826;30.108;2023-06-26T01:33:17;14.75;;;7.15;;
78674;SDS011;67990;59.826;30.108;2023-06-26T01:36:03;10.18;;;6.30;;
78674;SDS011;67990;59.826;30.108;2023-06-26T01:38:33;11.00;;;7.10;;
78674;SDS011;67990;59.826;30.108;2023-06-26T01:41:37;10.40;;;6.90;;
78674;SDS011;67990;59.826;30.108;2023-06-26T01:44:10;11.82;;;6.75;;
78674;SDS011;67990;59.826;30.108;2023-06-26T01:46:47;9.75;;;6.63;;
78674;SDS011;67990;59.826;30.108;2023-06-26T01:49:32;10.88;;;6.72;;
78674;SDS011;67990;59.826;30.108;2023-06-26T01:52:07;10.73;;;7.00;;
78674;SDS011;67990;59.826;30.108;2023-06-26T01:54:57;10.37;;;6.57;;
78674;SDS011;67990;59.826;30.108;2023-06-26T01:57:32;9.35;;;6.30;;
78674;SDS011;67990;59.826;30.108;2023-06-26T02:00:20;9.98;;;6.80;;
78674;SDS011;67990;59.826;30.108;2023-06-26T02:03:06;10.40;;;6.68;;
78674;SDS011;67990;59.826;30.108;2023-06-26T02:05:33;12.15;;;7.68;;
78674;SDS011;67990;59.826;30.108;2023-06-26T02:11:05;11.38;;;7.25;;
78674;SDS011;67990;59.826;30.108;2023-06-26T02:13:33;12.95;;;8.40;;
78674;SDS011;67990;59.826;30.108;2023-06-26T02:16:00;13.52;;;7.72;;
78674;SDS011;67990;59.826;30.108;2023-06-26T02:18:28;12.95;;;8.13;;
78674;SDS011;67990;59.826;30.108;2023-06-26T02:21:14;12.13;;;7.83;;
78674;SDS011;67990;59.826;30.108;2023-06-26T02:23:58;14.98;;;8.05;;
78674;SDS011;67990;59.826;30.108;2023-06-26T02:26:26;12.07;;;7.22;;
78674;SDS011;67990;59.826;30.108;2023-06-26T02:28:53;10.63;;;7.03;;
78674;SDS011;67990;59.826;30.108;2023-06-26T02:31:20;11.13;;;7.45;;
78674;SDS011;67990;59.826;30.108;2023-06-26T02:34:06;11.40;;;7.30;;
78674;SDS011;67990;59.826;30.108;2023-06-26T02:36:33;10.35;;;7.43;;
78674;SDS011;67990;59.826;30.108;2023-06-26T02:39:20;11.63;;;8.02;;
78674;SDS011;67990;59.826;30.108;2023-06-26T02:41:47;11.50;;;7.45;;
78674;SDS011;67990;59.826;30.108;2023-06-26T02:50:23;12.27;;;7.97;;
78674;SDS011;67990;59.826;30.108;2023-06-26T02:55:58;11.10;;;6.55;;
78674;SDS011;67990;59.826;30.108;2023-06-26T02:58:25;10.73;;;6.50;;
78674;SDS011;67990;59.826;30.108;2023-06-26T03:00:52;9.63;;;6.83;;
78674;SDS011;67990;59.826;30.108;2023-06-26T03:03:20;9.70;;;6.47;;
78674;SDS011;67990;59.826;30.108;2023-06-26T03:05:48;9.65;;;6.10;;
78674;SDS011;67990;59.826;30.108;2023-06-26T03:08:15;9.13;;;5.63;;
78674;SDS011;67990;59.826;30.108;2023-06-26T03:10:43;9.88;;;5.30;;
78674;SDS011;67990;59.826;30.108;2023-06-26T03:13:10;9.77;;;5.70;;
78674;SDS011;67990;59.826;30.108;2023-06-26T03:15:56;8.80;;;4.95;;
78674;SDS011;67990;59.826;30.108;2023-06-26T03:18:23;9.05;;;6.13;;
78674;SDS011;67990;59.826;30.108;2023-06-26T03:20:52;8.07;;;5.28;;
78674;SDS011;67990;59.826;30.108;2023-06-26T03:23:20;8.10;;;5.50;;
78674;SDS011;67990;59.826;30.108;2023-06-26T03:25:48;8.27;;;4.70;;
78674;SDS011;67990;59.826;30.108;2023-06-26T03:28:26;7.82;;;5.10;;
78674;SDS011;67990;59.826;30.108;2023-06-26T03:30:53;8.82;;;5.90;;
78674;SDS011;67990;59.826;30.108;2023-06-26T03:33:21;9.38;;;5.72;;
78674;SDS011;67990;59.826;30.108;2023-06-26T03:36:08;7.85;;;6.15;;
78674;SDS011;67990;59.826;30.108;2023-06-26T03:38:35;8.43;;;5.67;;
78674;SDS011;67990;59.826;30.108;2023-06-26T03:41:02;7.97;;;5.57;;
78674;SDS011;67990;59.826;30.108;2023-06-26T03:43:29;8.02;;;6.43;;
78674;SDS011;67990;59.826;30.108;2023-06-26T03:46:05;10.85;;;5.75;;
78674;SDS011;67990;59.826;30.108;2023-06-26T03:48:32;7.60;;;6.20;;
78674;SDS011;67990;59.826;30.108;2023-06-26T03:53:46;7.90;;;5.55;;
78674;SDS011;67990;59.826;30.108;2023-06-26T03:56:13;8.77;;;6.47;;
78674;SDS011;67990;59.826;30.108;2023-06-26T03:58:42;10.18;;;6.10;;
78674;SDS011;67990;59.826;30.108;2023-06-26T04:01:10;8.98;;;7.43;;
78674;SDS011;67990;59.826;30.108;2023-06-26T04:03:37;7.47;;;6.10;;
78674;SDS011;67990;59.826;30.108;2023-06-26T04:06:04;8.70;;;6.32;;
78674;SDS011;67990;59.826;30.108;2023-06-26T04:08:33;7.95;;;6.15;;
78674;SDS011;67990;59.826;30.108;2023-06-26T04:11:00;11.52;;;6.30;;
78674;SDS011;67990;59.826;30.108;2023-06-26T04:13:27;9.48;;;6.57;;
78674;SDS011;67990;59.826;30.108;2023-06-26T04:15:54;7.37;;;6.17;;
78674;SDS011;67990;59.826;30.108;2023-06-26T04:18:22;10.77;;;6.67;;
78674;SDS011;67990;59.826;30.108;2023-06-26T04:21:07;8.27;;;6.70;;
78674;SDS011;67990;59.826;30.108;2023-06-26T04:23:38;8.90;;;6.82;;
78674;SDS011;67990;59.826;30.108;2023-06-26T04:26:24;7.88;;;6.05;;
78674;SDS011;67990;59.826;30.108;2023-06-26T04:28:53;8.65;;;6.90;;
78674;SDS011;67990;59.826;30.108;2023-06-26T04:31:38;8.27;;;7.47;;
78674;SDS011;67990;59.826;30.108;2023-06-26T04:34:05;8.85;;;7.82;;
78674;SDS011;67990;59.826;30.108;2023-06-26T04:36:32;9.30;;;7.72;;
78674;SDS011;67990;59.826;30.108;2023-06-26T04:39:05;9.30;;;7.55;;
78674;SDS011;67990;59.826;30.108;2023-06-26T04:41:33;8.23;;;7.30;;
78674;SDS011;67990;59.826;30.108;2023-06-26T04:46:46;9.38;;;7.45;;
78674;SDS011;67990;59.826;30.108;2023-06-26T04:49:13;8.48;;;7.53;;
78674;SDS011;67990;59.826;30.108;2023-06-26T04:51:43;7.50;;;6.80;;
78674;SDS011;67990;59.826;30.108;2023-06-26T04:54:11;8.20;;;7.38;;
78674;SDS011;67990;59.826;30.108;2023-06-26T04:56:39;8.37;;;6.70;;
78674;SDS011;67990;59.826;30.108;2023-06-26T04:59:06;8.05;;;7.05;;
78674;SDS011;67990;59.826;30.108;2023-06-26T05:01:38;8.45;;;7.57;;
78674;SDS011;67990;59.826;30.108;2023-06-26T05:06:53;10.15;;;8.77;;
78674;SDS011;67990;59.826;30.108;2023-06-26T05:09:21;9.10;;;8.07;;
78674;SDS011;67990;59.826;30.108;2023-06-26T05:11:48;8.48;;;7.57;;
78674;SDS011;67990;59.826;30.108;2023-06-26T05:17:01;8.75;;;7.85;;
78674;SDS011;67990;59.826;30.108;2023-06-26T05:19:29;8.50;;;7.60;;
78674;SDS011;67990;59.826;30.108;2023-06-26T05:21:56;8.80;;;7.80;;
78674;SDS011;67990;59.826;30.108;2023-06-26T05:24:25;10.00;;;8.20;;
78674;SDS011;67990;59.826;30.108;2023-06-26T05:26:52;10.25;;;8.10;;
78674;SDS011;67990;59.826;30.108;2023-06-26T05:29:20;11.05;;;8.30;;
78674;SDS011;67990;59.826;30.108;2023-06-26T05:31:48;8.68;;;7.88;;
78674;SDS011;67990;59.826;30.108;2023-06-26T05:34:17;8.17;;;7.37;;
78674;SDS011;67990;59.826;30.108;2023-06-26T05:36:50;8.95;;;8.05;;
78674;SDS011;67990;59.826;30.108;2023-06-26T05:39:38;8.55;;;7.35;;
78674;SDS011;67990;59.826;30.108;2023-06-26T05:42:06;9.15;;;6.97;;
78674;SDS011;67990;59.826;30.108;2023-06-26T05:44:34;10.18;;;7.93;;
78674;SDS011;67990;59.826;30.108;2023-06-26T05:47:01;8.70;;;7.80;;
78674;SDS011;67990;59.826;30.108;2023-06-26T05:49:28;8.57;;;7.70;;
78674;SDS011;67990;59.826;30.108;2023-06-26T05:51:55;9.10;;;7.88;;
78674;SDS011;67990;59.826;30.108;2023-06-26T05:54:23;8.18;;;7.47;;
78674;SDS011;67990;59.826;30.108;2023-06-26T05:56:52;9.13;;;8.20;;
78674;SDS011;67990;59.826;30.108;2023-06-26T06:02:11;8.63;;;7.10;;
78674;SDS011;67990;59.826;30.108;2023-06-26T06:04:38;8.90;;;8.05;;
78674;SDS011;67990;59.826;30.108;2023-06-26T06:07:24;9.30;;;8.27;;
78674;SDS011;67990;59.826;30.108;2023-06-26T06:09:52;10.93;;;8.75;;
78674;SDS011;67990;59.826;30.108;2023-06-26T06:12:20;9.67;;;8.73;;
78674;SDS011;67990;59.826;30.108;2023-06-26T06:14:47;8.98;;;7.22;;
78674;SDS011;67990;59.826;30.108;2023-06-26T06:17:15;9.85;;;8.98;;
78674;SDS011;67990;59.826;30.108;2023-06-26T06:19:59;9.00;;;8.10;;
78674;SDS011;67990;59.826;30.108;2023-06-26T06:22:27;7.63;;;6.07;;
78674;SDS011;67990;59.826;30.108;2023-06-26T06:24:54;7.93;;;7.23;;
78674;SDS011;67990;59.826;30.108;2023-06-26T06:27:23;7.45;;;5.65;;
78674;SDS011;67990;59.826;30.108;2023-06-26T06:30:09;8.68;;;7.88;;
78674;SDS011;67990;59.826;30.108;2023-06-26T06:32:37;8.60;;;7.80;;
78674;SDS011;67990;59.826;30.108;2023-06-26T06:35:05;8.20;;;7.28;;
78674;SDS011;67990;59.826;30.108;2023-06-26T06:40:55;8.75;;;7.95;;
78674;SDS011;67990;59.826;30.108;2023-06-26T06:43:24;9.50;;;8.45;;
78674;SDS011;67990;59.826;30.108;2023-06-26T06:46:27;8.82;;;7.97;;
78674;SDS011;67990;59.826;30.108;2023-06-26T06:48:54;8.35;;;7.55;;
78674;SDS011;67990;59.826;30.108;2023-06-26T06:51:22;6.93;;;6.13;;
78674;SDS011;67990;59.826;30.108;2023-06-26T06:53:49;7.05;;;6.00;;
78674;SDS011;67990;59.826;30.108;2023-06-26T06:56:16;6.32;;;5.72;;
78674;SDS011;67990;59.826;30.108;2023-06-26T06:58:45;6.60;;;5.65;;
78674;SDS011;67990;59.826;30.108;2023-06-26T07:01:31;7.25;;;5.45;;
78674;SDS011;67990;59.826;30.108;2023-06-26T07:03:58;7.50;;;6.70;;
78674;SDS011;67990;59.826;30.108;2023-06-26T07:06:43;8.27;;;7.47;;
78674;SDS011;67990;59.826;30.108;2023-06-26T07:09:10;7.03;;;5.63;;
78674;SDS011;67990;59.826;30.108;2023-06-26T07:11:56;7.78;;;6.57;;
78674;SDS011;67990;59.826;30.108;2023-06-26T07:14:24;10.27;;;7.25;;
78674;SDS011;67990;59.826;30.108;2023-06-26T07:17:10;8.47;;;7.60;;
78674;SDS011;67990;59.826;30.108;2023-06-26T07:19:37;7.70;;;6.97;;
78674;SDS011;67990;59.826;30.108;2023-06-26T07:22:05;9.07;;;8.18;;
78674;SDS011;67990;59.826;30.108;2023-06-26T07:24:32;9.23;;;7.68;;
78674;SDS011;67990;59.826;30.108;2023-06-26T07:26:59;8.77;;;7.90;;
78674;SDS011;67990;59.826;30.108;2023-06-26T07:29:29;8.53;;;7.73;;
78674;SDS011;67990;59.826;30.108;2023-06-26T07:31:57;7.13;;;6.43;;
78674;SDS011;67990;59.826;30.108;2023-06-26T07:34:24;10.20;;;9.30;;
78674;SDS011;67990;59.826;30.108;2023-06-26T07:37:09;10.07;;;9.07;;
78674;SDS011;67990;59.826;30.108;2023-06-26T07:39:55;7.43;;;6.65;;
78674;SDS011;67990;59.826;30.108;2023-06-26T07:42:43;10.60;;;9.57;;
78674;SDS011;67990;59.826;30.108;2023-06-26T07:45:11;9.52;;;8.40;;
78674;SDS011;67990;59.826;30.108;2023-06-26T07:47:39;9.10;;;8.30;;
78674;SDS011;67990;59.826;30.108;2023-06-26T07:52:52;8.25;;;5.65;;
78674;SDS011;67990;59.826;30.108;2023-06-26T07:55:20;6.23;;;5.63;;
78674;SDS011;67990;59.826;30.108;2023-06-26T07:57:48;7.78;;;6.85;;
78674;SDS011;67990;59.826;30.108;2023-06-26T08:00:19;7.40;;;6.70;;
78674;SDS011;67990;59.826;30.108;2023-06-26T08:02:46;7.28;;;6.57;;
78674;SDS011;67990;59.826;30.108;2023-06-26T08:05:13;7.50;;;6.80;;
78674;SDS011;67990;59.826;30.108;2023-06-26T08:07:40;7.73;;;6.90;;
78674;SDS011;67990;59.826;30.108;2023-06-26T08:10:08;8.13;;;6.57;;
78674;SDS011;67990;59.826;30.108;2023-06-26T08:12:36;6.20;;;5.40;;
78674;SDS011;67990;59.826;30.108;2023-06-26T08:15:23;6.88;;;6.18;;
78674;SDS011;67990;59.826;30.108;2023-06-26T08:17:51;7.50;;;5.53;;
78674;SDS011;67990;59.826;30.108;2023-06-26T08:20:18;8.87;;;4.93;;
78674;SDS011;67990;59.826;30.108;2023-06-26T08:22:46;7.72;;;4.93;;
78674;SDS011;67990;59.826;30.108;2023-06-26T08:25:31;6.20;;;5.50;;
78674;SDS011;67990;59.826;30.108;2023-06-26T08:28:15;8.15;;;5.80;;
78674;SDS011;67990;59.826;30.108;2023-06-26T08:33:48;5.93;;;5.33;;
78674;SDS011;67990;59.826;30.108;2023-06-26T08:36:15;8.10;;;5.22;;
78674;SDS011;67990;59.826;30.108;2023-06-26T08:38:43;5.93;;;5.32;;
78674;SDS011;67990;59.826;30.108;2023-06-26T08:41:29;5.28;;;4.78;;
78674;SDS011;67990;59.826;30.108;2023-06-26T08:43:56;5.55;;;4.45;;
78674;SDS011;67990;59.826;30.108;2023-06-26T08:46:25;6.33;;;5.00;;
78674;SDS011;67990;59.826;30.108;2023-06-26T08:48:55;6.25;;;5.18;;
78674;SDS011;67990;59.826;30.108;2023-06-26T08:51:23;5.93;;;4.97;;
78674;SDS011;67990;59.826;30.108;2023-06-26T08:53:53;6.43;;;5.03;;
78674;SDS011;67990;59.826;30.108;2023-06-26T08:56:27;6.65;;;4.45;;
78674;SDS011;67990;59.826;30.108;2023-06-26T09:02:03;5.50;;;4.13;;
78674;SDS011;67990;59.826;30.108;2023-06-26T09:04:50;5.78;;;4.70;;
78674;SDS011;67990;59.826;30.108;2023-06-26T09:07:17;6.18;;;4.30;;
78674;SDS011;67990;59.826;30.108;2023-06-26T09:09:45;7.40;;;4.30;;
78674;SDS011;67990;59.826;30.108;2023-06-26T09:14:58;6.15;;;4.38;;
78674;SDS011;67990;59.826;30.108;2023-06-26T09:17:32;5.88;;;5.28;;
78674;SDS011;67990;59.826;30.108;2023-06-26T09:20:05;5.72;;;5.05;;
78674;SDS011;67990;59.826;30.108;2023-06-26T09:22:50;5.35;;;4.85;;
78674;SDS011;67990;59.826;30.108;2023-06-26T09:25:38;6.60;;;4.13;;
78674;SDS011;67990;59.826;30.108;2023-06-26T09:28:25;5.30;;;4.63;;
78674;SDS011;67990;59.826;30.108;2023-06-26T09:30:52;5.70;;;4.75;;
78674;SDS011;67990;59.826;30.108;2023-06-26T09:33:21;8.52;;;6.13;;
78674;SDS011;67990;59.826;30.108;2023-06-26T09:36:07;5.95;;;4.95;;
78674;SDS011;67990;59.826;30.108;2023-06-26T09:41:40;5.73;;;4.30;;
78674;SDS011;67990;59.826;30.108;2023-06-26T09:44:27;6.45;;;4.22;;
78674;SDS011;67990;59.826;30.108;2023-06-26T09:46:57;5.50;;;4.50;;
78674;SDS011;67990;59.826;30.108;2023-06-26T09:49:26;5.55;;;3.83;;
78674;SDS011;67990;59.826;30.108;2023-06-26T09:51:53;7.32;;;5.38;;
78674;SDS011;67990;59.826;30.108;2023-06-26T09:54:21;6.40;;;4.70;;
78674;SDS011;67990;59.826;30.108;2023-06-26T09:57:07;8.45;;;5.22;;
78674;SDS011;67990;59.826;30.108;2023-06-26T09:59:34;6.53;;;4.95;;
78674;SDS011;67990;59.826;30.108;2023-06-26T10:02:20;8.23;;;4.63;;
78674;SDS011;67990;59.826;30.108;2023-06-26T10:04:49;6.15;;;4.90;;
78674;SDS011;67990;59.826;30.108;2023-06-26T10:10:03;8.23;;;4.65;;
78674;SDS011;67990;59.826;30.108;2023-06-26T10:12:52;6.88;;;4.60;;
78674;SDS011;67990;59.826;30.108;2023-06-26T10:15:39;6.90;;;4.40;;
78674;SDS011;67990;59.826;30.108;2023-06-26T10:18:10;7.05;;;4.28;;
78674;SDS011;67990;59.826;30.108;2023-06-26T10:20:41;5.87;;;3.57;;
78674;SDS011;67990;59.826;30.108;2023-06-26T10:23:12;6.28;;;3.88;;
78674;SDS011;67990;59.826;30.108;2023-06-26T10:25:42;5.72;;;4.45;;
78674;SDS011;67990;59.826;30.108;2023-06-26T10:28:31;6.68;;;4.40;;
78674;SDS011;67990;59.826;30.108;2023-06-26T10:31:01;6.50;;;3.83;;
78674;SDS011;67990;59.826;30.108;2023-06-26T10:36:36;6.47;;;4.90;;
78674;SDS011;67990;59.826;30.108;2023-06-26T10:39:46;7.57;;;5.07;;
78674;SDS011;67990;59.826;30.108;2023-06-26T10:42:34;8.07;;;4.90;;
78674;SDS011;67990;59.826;30.108;2023-06-26T10:45:20;6.07;;;4.38;;
78674;SDS011;67990;59.826;30.108;2023-06-26T10:50:52;8.80;;;4.40;;
78674;SDS011;67990;59.826;30.108;2023-06-26T10:53:40;9.77;;;4.65;;
78674;SDS011;67990;59.826;30.108;2023-06-26T10:56:09;9.45;;;4.55;;
78674;SDS011;67990;59.826;30.108;2023-06-26T10:58:39;7.10;;;4.20;;
78674;SDS011;67990;59.826;30.108;2023-06-26T11:01:28;7.93;;;4.38;;
78674;SDS011;67990;59.826;30.108;2023-06-26T11:04:04;6.17;;;3.73;;
78674;SDS011;67990;59.826;30.108;2023-06-26T11:06:32;6.00;;;3.70;;
78674;SDS011;67990;59.826;30.108;2023-06-26T11:09:06;7.13;;;4.38;;
78674;SDS011;67990;59.826;30.108;2023-06-26T11:11:55;7.40;;;4.07;;
78674;SDS011;67990;59.826;30.108;2023-06-26T11:15:01;10.50;;;3.97;;
78674;SDS011;67990;59.826;30.108;2023-06-26T11:17:29;8.52;;;4.57;;
78674;SDS011;67990;59.826;30.108;2023-06-26T11:19:56;8.27;;;4.37;;
78674;SDS011;67990;59.826;30.108;2023-06-26T11:22:23;7.32;;;4.55;;
78674;SDS011;67990;59.826;30.108;2023-06-26T11:24:55;6.95;;;4.05;;
78674;SDS011;67990;59.826;30.108;2023-06-26T11:27:30;7.55;;;4.47;;
78674;SDS011;67990;59.826;30.108;2023-06-26T11:30:22;7.97;;;4.50;;
78674;SDS011;67990;59.826;30.108;2023-06-26T11:32:51;7.00;;;4.27;;
78674;SDS011;67990;59.826;30.108;2023-06-26T11:35:37;9.43;;;4.35;;
78674;SDS011;67990;59.826;30.108;2023-06-26T11:38:04;13.23;;;4.82;;
78674;SDS011;67990;59.826;30.108;2023-06-26T11:40:34;12.68;;;4.43;;
78674;SDS011;67990;59.826;30.108;2023-06-26T11:43:02;7.93;;;3.40;;
78674;SDS011;67990;59.826;30.108;2023-06-26T11:45:30;10.27;;;2.53;;
78674;SDS011;67990;59.826;30.108;2023-06-26T11:47:58;7.37;;;3.17;;
78674;SDS011;67990;59.826;30.108;2023-06-26T11:50:27;4.93;;;2.30;;
78674;SDS011;67990;59.826;30.108;2023-06-26T11:52:54;4.55;;;2.22;;
78674;SDS011;67990;59.826;30.108;2023-06-26T11:55:42;6.70;;;3.13;;
78674;SDS011;67990;59.826;30.108;2023-06-26T11:58:09;10.18;;;3.33;;
78674;SDS011;67990;59.826;30.108;2023-06-26T12:03:22;7.38;;;3.75;;
78674;SDS011;67990;59.826;30.108;2023-06-26T12:05:50;7.13;;;3.30;;
78674;SDS011;67990;59.826;30.108;2023-06-26T12:08:17;7.25;;;3.28;;
78674;SDS011;67990;59.826;30.108;2023-06-26T12:10:46;8.60;;;3.80;;
78674;SDS011;67990;59.826;30.108;2023-06-26T12:13:31;9.63;;;4.50;;
78674;SDS011;67990;59.826;30.108;2023-06-26T12:15:59;7.78;;;3.88;;
78674;SDS011;67990;59.826;30.108;2023-06-26T12:18:45;7.63;;;4.43;;
78674;SDS011;67990;59.826;30.108;2023-06-26T12:24:14;7.90;;;4.32;;
78674;SDS011;67990;59.826;30.108;2023-06-26T12:27:02;8.03;;;4.00;;
78674;SDS011;67990;59.826;30.108;2023-06-26T12:29:35;8.82;;;3.92;;
78674;SDS011;67990;59.826;30.108;2023-06-26T12:32:02;6.70;;;3.92;;
78674;SDS011;67990;59.826;30.108;2023-06-26T12:34:31;6.95;;;4.10;;
78674;SDS011;67990;59.826;30.108;2023-06-26T12:37:00;7.70;;;4.55;;
78674;SDS011;67990;59.826;30.108;2023-06-26T12:42:36;8.68;;;4.70;;
78674;SDS011;67990;59.826;30.108;2023-06-26T12:45:09;8.20;;;5.00;;
78674;SDS011;67990;59.826;30.108;2023-06-26T12:47:37;8.07;;;4.70;;
78674;SDS011;67990;59.826;30.108;2023-06-26T12:52:52;10.13;;;4.47;;
78674;SDS011;67990;59.826;30.108;2023-06-26T12:55:19;8.10;;;4.15;;
78674;SDS011;67990;59.826;30.108;2023-06-26T12:57:48;8.13;;;4.50;;
78674;SDS011;67990;59.826;30.108;2023-06-26T13:00:17;8.32;;;4.40;;
78674;SDS011;67990;59.826;30.108;2023-06-26T13:02:45;9.38;;;4.30;;
78674;SDS011;67990;59.826;30.108;2023-06-26T13:05:12;8.90;;;3.90;;
78674;SDS011;67990;59.826;30.108;2023-06-26T13:07:39;8.70;;;4.43;;
78674;SDS011;67990;59.826;30.108;2023-06-26T13:10:07;12.15;;;7.28;;
78674;SDS011;67990;59.826;30.108;2023-06-26T13:12:55;18.52;;;10.90;;
78674;SDS011;67990;59.826;30.108;2023-06-26T13:15:23;9.18;;;5.25;;
78674;SDS011;67990;59.826;30.108;2023-06-26T13:17:50;9.13;;;4.10;;
78674;SDS011;67990;59.826;30.108;2023-06-26T13:20:36;6.50;;;3.30;;
78674;SDS011;67990;59.826;30.108;2023-06-26T13:23:21;7.15;;;3.85;;
78674;SDS011;67990;59.826;30.108;2023-06-26T13:25:49;7.28;;;3.28;;
78674;SDS011;67990;59.826;30.108;2023-06-26T13:28:18;6.25;;;3.00;;
78674;SDS011;67990;59.826;30.108;2023-06-26T13:31:04;5.50;;;3.13;;
78674;SDS011;67990;59.826;30.108;2023-06-26T13:33:31;6.22;;;2.88;;
78674;SDS011;67990;59.826;30.108;2023-06-26T13:35:58;6.70;;;3.70;;
78674;SDS011;67990;59.826;30.108;2023-06-26T13:38:26;7.90;;;3.78;;
78674;SDS011;67990;59.826;30.108;2023-06-26T13:41:11;7.40;;;3.60;;
78674;SDS011;67990;59.826;30.108;2023-06-26T13:44:17;5.47;;;2.93;;
78674;SDS011;67990;59.826;30.108;2023-06-26T13:46:44;6.50;;;2.80;;
78674;SDS011;67990;59.826;30.108;2023-06-26T13:49:12;6.38;;;3.20;;
78674;SDS011;67990;59.826;30.108;2023-06-26T13:51:39;5.60;;;2.83;;
78674;SDS011;67990;59.826;30.108;2023-06-26T13:56:57;5.50;;;3.00;;
78674;SDS011;67990;59.826;30.108;2023-06-26T13:59:28;6.97;;;2.90;;
78674;SDS011;67990;59.826;30.108;2023-06-26T14:01:56;7.38;;;3.22;;
78674;SDS011;67990;59.826;30.108;2023-06-26T14:04:24;6.32;;;3.10;;
78674;SDS011;67990;59.826;30.108;2023-06-26T14:07:10;6.93;;;3.60;;
78674;SDS011;67990;59.826;30.108;2023-06-26T14:09:38;6.43;;;3.65;;
78674;SDS011;67990;59.826;30.108;2023-06-26T14:12:23;7.93;;;4.40;;
78674;SDS011;67990;59.826;30.108;2023-06-26T14:15:09;7.20;;;3.85;;
78674;SDS011;67990;59.826;30.108;2023-06-26T14:17:37;8.55;;;4.38;;
78674;SDS011;67990;59.826;30.108;2023-06-26T14:20:05;10.30;;;4.60;;
78674;SDS011;67990;59.826;30.108;2023-06-26T14:22:36;8.35;;;4.72;;
78674;SDS011;67990;59.826;30.108;2023-06-26T14:25:03;8.27;;;4.33;;
78674;SDS011;67990;59.826;30.108;2023-06-26T14:27:34;8.77;;;4.35;;
78674;SDS011;67990;59.826;30.108;2023-06-26T14:30:01;10.65;;;5.15;;
78674;SDS011;67990;59.826;30.108;2023-06-26T14:32:31;11.05;;;5.40;;
78674;SDS011;67990;59.826;30.108;2023-06-26T14:34:58;11.40;;;5.82;;
78674;SDS011;67990;59.826;30.108;2023-06-26T14:37:25;12.60;;;5.37;;
78674;SDS011;67990;59.826;30.108;2023-06-26T14:39:53;9.63;;;5.07;;
78674;SDS011;67990;59.826;30.108;2023-06-26T14:42:20;10.40;;;4.82;;
78674;SDS011;67990;59.826;30.108;2023-06-26T14:44:48;9.07;;;5.13;;
78674;SDS011;67990;59.826;30.108;2023-06-26T14:47:16;10.93;;;5.15;;
78674;SDS011;67990;59.826;30.108;2023-06-26T14:49:45;9.93;;;5.10;;
78674;SDS011;67990;59.826;30.108;2023-06-26T14:52:13;9.63;;;5.43;;
78674;SDS011;67990;59.826;30.108;2023-06-26T14:54:40;10.65;;;5.18;;
78674;SDS011;67990;59.826;30.108;2023-06-26T14:57:07;11.30;;;5.32;;
78674;SDS011;67990;59.826;30.108;2023-06-26T14:59:51;9.63;;;5.65;;
78674;SDS011;67990;59.826;30.108;2023-06-26T15:02:19;9.73;;;4.88;;
78674;SDS011;67990;59.826;30.108;2023-06-26T15:04:48;10.67;;;5.17;;
78674;SDS011;67990;59.826;30.108;2023-06-26T15:54:52;16.50;;;8.90;;
78674;SDS011;67990;59.826;30.108;2023-06-26T15:57:20;16.45;;;8.32;;
78674;SDS011;67990;59.826;30.108;2023-06-26T16:00:05;16.85;;;8.77;;
78674;SDS011;67990;59.826;30.108;2023-06-26T16:02:40;15.63;;;8.60;;
78674;SDS011;67990;59.826;30.108;2023-06-26T16:05:11;17.13;;;10.50;;
78674;SDS011;67990;59.826;30.108;2023-06-26T16:07:39;19.17;;;12.15;;
78674;SDS011;67990;59.826;30.108;2023-06-26T16:10:09;20.60;;;11.85;;
78674;SDS011;67990;59.826;30.108;2023-06-26T16:12:37;22.13;;;10.95;;
78674;SDS011;67990;59.826;30.108;2023-06-26T16:17:51;17.02;;;8.98;;
78674;SDS011;67990;59.826;30.108;2023-06-26T16:20:39;22.23;;;10.23;;
78674;SDS011;67990;59.826;30.108;2023-06-26T16:23:10;16.52;;;9.23;;
78674;SDS011;67990;59.826;30.108;2023-06-26T16:25:39;16.85;;;9.45;;
78674;SDS011;67990;59.826;30.108;2023-06-26T16:31:32;17.98;;;9.55;;
78674;SDS011;67990;59.826;30.108;2023-06-26T16:34:03;17.17;;;9.82;;
78674;SDS011;67990;59.826;30.108;2023-06-26T16:36:35;23.83;;;9.95;;
78674;SDS011;67990;59.826;30.108;2023-06-26T16:39:20;18.30;;;10.20;;
78674;SDS011;67990;59.826;30.108;2023-06-26T16:41:51;20.40;;;9.57;;
78674;SDS011;67990;59.826;30.108;2023-06-26T16:44:20;20.27;;;10.55;;
78674;SDS011;67990;59.826;30.108;2023-06-26T16:46:47;21.02;;;10.63;;
78674;SDS011;67990;59.826;30.108;2023-06-26T16:49:15;18.88;;;10.93;;
78674;SDS011;67990;59.826;30.108;2023-06-26T16:51:42;16.60;;;9.70;;
78674;SDS011;67990;59.826;30.108;2023-06-26T16:54:28;14.07;;;7.13;;
78674;SDS011;67990;59.826;30.108;2023-06-26T16:57:17;13.15;;;5.88;;
78674;SDS011;67990;59.826;30.108;2023-06-26T16:59:44;10.65;;;5.60;;
78674;SDS011;67990;59.826;30.108;2023-06-26T17:02:30;15.02;;;6.93;;
78674;SDS011;67990;59.826;30.108;2023-06-26T17:04:57;9.15;;;5.47;;
78674;SDS011;67990;59.826;30.108;2023-06-26T17:07:25;9.33;;;5.50;;
78674;SDS011;67990;59.826;30.108;2023-06-26T17:09:52;9.88;;;5.57;;
78674;SDS011;67990;59.826;30.108;2023-06-26T17:12:39;10.52;;;5.97;;
78674;SDS011;67990;59.826;30.108;2023-06-26T17:15:07;11.93;;;6.07;;